sensor_id;sensor_type;location;lat;lon;timestamp;pressure;altitude;pressure_sealevel;temperature;humidity
68075;BME280;54864;52.002;5.468;2023-02-11T00:00:27;103261.38;;;8.44;75.70
68075;BME280;54864;52.002;5.468;2023-02-11T00:01:29;103252.63;;;8.44;75.19
68075;BME280;54864;52.002;5.468;2023-02-11T00:02:32;103260.50;;;8.38;76.04
68075;BME280;54864;52.002;5.468;2023-02-11T00:03:33;103257.00;;;8.42;76.26
68075;BME280;54864;52.002;5.468;2023-02-11T00:04:35;103259.56;;;8.31;76.88
68075;BME280;54864;52.002;5.468;2023-02-11T00:05:36;103263.06;;;8.25;76.22
68075;BME280;54864;52.002;5.468;2023-02-11T00:06:38;103263.03;;;8.22;76.83
68075;BME280;54864;52.002;5.468;2023-02-11T00:07:38;103263.91;;;8.20;76.80
68075;BME280;54864;52.002;5.468;2023-02-11T00:08:40;103270.91;;;8.18;77.50
68075;BME280;54864;52.002;5.468;2023-02-11T00:09:41;103277.00;;;8.11;77.14
68075;BME280;54864;52.002;5.468;2023-02-11T00:10:44;103265.66;;;8.22;77.22
68075;BME280;54864;52.002;5.468;2023-02-11T00:11:45;103274.41;;;8.18;76.39
68075;BME280;54864;52.002;5.468;2023-02-11T00:12:47;103277.94;;;8.22;76.82
68075;BME280;54864;52.002;5.468;2023-02-11T00:13:48;103270.91;;;8.21;77.10
68075;BME280;54864;52.002;5.468;2023-02-11T00:14:50;103274.41;;;8.17;77.00
68075;BME280;54864;52.002;5.468;2023-02-11T00:15:51;103267.41;;;8.14;76.81
68075;BME280;54864;52.002;5.468;2023-02-11T00:16:53;103270.91;;;8.15;77.25
68075;BME280;54864;52.002;5.468;2023-02-11T00:17:53;103270.94;;;8.30;77.35
68075;BME280;54864;52.002;5.468;2023-02-11T00:18:55;103267.50;;;8.36;76.40
68075;BME280;54864;52.002;5.468;2023-02-11T00:19:56;103266.63;;;8.35;76.85
68075;BME280;54864;52.002;5.468;2023-02-11T00:20:58;103263.06;;;8.32;76.47
68075;BME280;54864;52.002;5.468;2023-02-11T00:21:58;103260.44;;;8.28;76.66
68075;BME280;54864;52.002;5.468;2023-02-11T00:23:02;103254.31;;;8.28;76.26
68075;BME280;54864;52.002;5.468;2023-02-11T00:24:03;103262.19;;;8.31;76.07
68075;BME280;54864;52.002;5.468;2023-02-11T00:25:05;103267.50;;;8.40;76.01
68075;BME280;54864;52.002;5.468;2023-02-11T00:26:12;103266.63;;;8.35;76.42
68075;BME280;54864;52.002;5.468;2023-02-11T00:27:14;103259.63;;;8.36;76.49
68075;BME280;54864;52.002;5.468;2023-02-11T00:28:15;103263.06;;;8.32;76.49
68075;BME280;54864;52.002;5.468;2023-02-11T00:29:16;103265.69;;;8.30;76.11
68075;BME280;54864;52.002;5.468;2023-02-11T00:30:17;103258.66;;;8.23;76.17
68075;BME280;54864;52.002;5.468;2023-02-11T00:31:21;103270.03;;;8.14;76.57
68075;BME280;54864;52.002;5.468;2023-02-11T00:32:22;103264.75;;;8.14;76.76
68075;BME280;54864;52.002;5.468;2023-02-11T00:33:23;103260.41;;;8.18;77.14
68075;BME280;54864;52.002;5.468;2023-02-11T00:34:24;103263.06;;;8.24;76.74
68075;BME280;54864;52.002;5.468;2023-02-11T00:35:26;103256.94;;;8.26;77.34
68075;BME280;54864;52.002;5.468;2023-02-11T00:36:28;103255.19;;;8.27;76.63
68075;BME280;54864;52.002;5.468;2023-02-11T00:37:30;103256.00;;;8.17;77.04
68075;BME280;54864;52.002;5.468;2023-02-11T00:38:30;103259.53;;;8.25;76.77
68075;BME280;54864;52.002;5.468;2023-02-11T00:39:32;103262.19;;;8.26;76.62
68075;BME280;54864;52.002;5.468;2023-02-11T00:40:34;103263.06;;;8.24;77.26
68075;BME280;54864;52.002;5.468;2023-02-11T00:41:39;103269.19;;;8.26;76.79
68075;BME280;54864;52.002;5.468;2023-02-11T00:42:41;103264.88;;;8.34;76.29
68075;BME280;54864;52.002;5.468;2023-02-11T00:43:41;103265.69;;;8.25;76.15
68075;BME280;54864;52.002;5.468;2023-02-11T00:44:43;103267.44;;;8.25;76.63
68075;BME280;54864;52.002;5.468;2023-02-11T00:45:44;103260.41;;;8.24;76.90
68075;BME280;54864;52.002;5.468;2023-02-11T00:46:45;103261.31;;;8.32;75.89
68075;BME280;54864;52.002;5.468;2023-02-11T00:47:46;103266.56;;;8.27;76.49
68075;BME280;54864;52.002;5.468;2023-02-11T00:48:48;103263.91;;;8.20;76.19
68075;BME280;54864;52.002;5.468;2023-02-11T00:49:50;103270.06;;;8.25;76.42
68075;BME280;54864;52.002;5.468;2023-02-11T00:50:52;103271.00;;;8.36;76.89
68075;BME280;54864;52.002;5.468;2023-02-11T00:51:53;103263.13;;;8.39;75.91
68075;BME280;54864;52.002;5.468;2023-02-11T00:52:55;103263.19;;;8.48;76.00
68075;BME280;54864;52.002;5.468;2023-02-11T00:53:55;103270.22;;;8.52;75.40
68075;BME280;54864;52.002;5.468;2023-02-11T00:54:57;103263.19;;;8.45;75.73
68075;BME280;54864;52.002;5.468;2023-02-11T00:55:58;103270.16;;;8.45;76.13
68075;BME280;54864;52.002;5.468;2023-02-11T00:57:01;103267.56;;;8.49;76.13
68075;BME280;54864;52.002;5.468;2023-02-11T00:58:02;103265.81;;;8.53;75.70
68075;BME280;54864;52.002;5.468;2023-02-11T00:59:04;103262.31;;;8.46;75.10
68075;BME280;54864;52.002;5.468;2023-02-11T01:00:06;103268.38;;;8.38;75.69
68075;BME280;54864;52.002;5.468;2023-02-11T01:01:08;103263.06;;;8.30;75.67
68075;BME280;54864;52.002;5.468;2023-02-11T01:02:08;103266.63;;;8.38;75.56
68075;BME280;54864;52.002;5.468;2023-02-11T01:03:10;103268.38;;;8.36;75.79
68075;BME280;54864;52.002;5.468;2023-02-11T01:04:11;103276.25;;;8.36;75.74
68075;BME280;54864;52.002;5.468;2023-02-11T01:05:12;103264.78;;;8.20;76.76
68075;BME280;54864;52.002;5.468;2023-02-11T01:06:13;103266.56;;;8.24;75.83
68075;BME280;54864;52.002;5.468;2023-02-11T01:07:15;103265.66;;;8.18;76.92
68075;BME280;54864;52.002;5.468;2023-02-11T01:08:16;103265.66;;;8.22;76.66
68075;BME280;54864;52.002;5.468;2023-02-11T01:09:17;103269.16;;;8.18;77.16
68075;BME280;54864;52.002;5.468;2023-02-11T01:10:20;103260.44;;;8.27;76.92
68075;BME280;54864;52.002;5.468;2023-02-11T01:11:22;103268.31;;;8.27;76.16
68075;BME280;54864;52.002;5.468;2023-02-11T01:12:24;103252.44;;;7.98;76.79
68075;BME280;54864;52.002;5.468;2023-02-11T01:13:26;103253.28;;;7.92;77.81
68075;BME280;54864;52.002;5.468;2023-02-11T01:14:27;103257.72;;;8.04;77.61
68075;BME280;54864;52.002;5.468;2023-02-11T01:15:29;103253.38;;;8.11;77.84
68075;BME280;54864;52.002;5.468;2023-02-11T01:16:29;103247.28;;;8.22;77.14
68075;BME280;54864;52.002;5.468;2023-02-11T01:17:32;103246.41;;;8.26;76.74
68075;BME280;54864;52.002;5.468;2023-02-11T01:18:33;103243.75;;;8.13;77.50
68075;BME280;54864;52.002;5.468;2023-02-11T01:19:37;103242.03;;;8.22;77.39
68075;BME280;54864;52.002;5.468;2023-02-11T01:20:37;103234.16;;;8.32;76.53
68075;BME280;54864;52.002;5.468;2023-02-11T01:21:39;103227.16;;;8.31;76.47
68075;BME280;54864;52.002;5.468;2023-02-11T01:22:41;103223.69;;;8.35;75.49
68075;BME280;54864;52.002;5.468;2023-02-11T01:23:41;103221.94;;;8.38;75.85
68075;BME280;54864;52.002;5.468;2023-02-11T01:24:43;103227.25;;;8.52;75.80
68075;BME280;54864;52.002;5.468;2023-02-11T01:25:44;103214.94;;;8.45;75.69
68075;BME280;54864;52.002;5.468;2023-02-11T01:26:46;103224.63;;;8.52;75.53
68075;BME280;54864;52.002;5.468;2023-02-11T01:27:49;103225.53;;;8.57;75.35
68075;BME280;54864;52.002;5.468;2023-02-11T01:28:50;103226.34;;;8.39;75.12
68075;BME280;54864;52.002;5.468;2023-02-11T01:29:52;103221.94;;;8.40;75.99
68075;BME280;54864;52.002;5.468;2023-02-11T01:30:53;103226.28;;;8.30;75.63
68075;BME280;54864;52.002;5.468;2023-02-11T01:31:54;103225.44;;;8.39;75.64
68075;BME280;54864;52.002;5.468;2023-02-11T01:32:55;103221.94;;;8.37;75.76
68075;BME280;54864;52.002;5.468;2023-02-11T01:33:57;103207.06;;;8.37;76.22
68075;BME280;54864;52.002;5.468;2023-02-11T01:34:57;103203.56;;;8.40;75.43
68075;BME280;54864;52.002;5.468;2023-02-11T01:36:00;103205.31;;;8.44;75.61
68075;BME280;54864;52.002;5.468;2023-02-11T01:37:02;103210.59;;;8.47;75.21
68075;BME280;54864;52.002;5.468;2023-02-11T01:38:03;103207.97;;;8.45;75.48
68075;BME280;54864;52.002;5.468;2023-02-11T01:39:04;103215.00;;;8.46;74.98
68075;BME280;54864;52.002;5.468;2023-02-11T01:40:12;103224.56;;;8.40;75.32
68075;BME280;54864;52.002;5.468;2023-02-11T01:41:13;103221.06;;;8.39;75.63
68075;BME280;54864;52.002;5.468;2023-02-11T01:42:17;103227.22;;;8.40;75.60
68075;BME280;54864;52.002;5.468;2023-02-11T01:43:20;103229.78;;;8.31;75.65
68075;BME280;54864;52.002;5.468;2023-02-11T01:44:27;103229.81;;;8.34;75.98
68075;BME280;54864;52.002;5.468;2023-02-11T01:47:09;103243.78;;;8.20;76.10
68075;BME280;54864;52.002;5.468;2023-02-11T01:48:13;103244.66;;;8.28;76.26
68075;BME280;54864;52.002;5.468;2023-02-11T01:49:18;103242.94;;;8.32;76.43
68075;BME280;54864;52.002;5.468;2023-02-11T01:50:21;103246.44;;;8.31;75.76
68075;BME280;54864;52.002;5.468;2023-02-11T01:51:25;103244.72;;;8.33;76.29
68075;BME280;54864;52.002;5.468;2023-02-11T01:52:30;103242.09;;;8.39;75.91
68075;BME280;54864;52.002;5.468;2023-02-11T01:53:35;103242.13;;;8.44;75.58
68075;BME280;54864;52.002;5.468;2023-02-11T01:54:59;103247.34;;;8.33;75.54
68075;BME280;54864;52.002;5.468;2023-02-11T01:56:19;103256.06;;;8.31;76.18
68075;BME280;54864;52.002;5.468;2023-02-11T01:57:42;103253.50;;;8.40;76.03
68075;BME280;54864;52.002;5.468;2023-02-11T01:58:47;103249.13;;;8.43;75.82
68075;BME280;54864;52.002;5.468;2023-02-11T02:00:07;103255.31;;;8.48;75.12
68075;BME280;54864;52.002;5.468;2023-02-11T02:01:12;103250.00;;;8.44;75.28
68075;BME280;54864;52.002;5.468;2023-02-11T02:02:17;103244.72;;;8.38;76.05
68075;BME280;54864;52.002;5.468;2023-02-11T02:03:21;103247.28;;;8.24;76.03
68075;BME280;54864;52.002;5.468;2023-02-11T02:04:26;103240.34;;;8.37;76.16
68075;BME280;54864;52.002;5.468;2023-02-11T02:05:33;103240.28;;;8.26;76.20
68075;BME280;54864;52.002;5.468;2023-02-11T02:06:42;103237.66;;;8.31;76.24
68075;BME280;54864;52.002;5.468;2023-02-11T02:07:49;103230.69;;;8.34;76.34
68075;BME280;54864;52.002;5.468;2023-02-11T02:08:54;103237.72;;;8.35;76.10
68075;BME280;54864;52.002;5.468;2023-02-11T02:10:00;103233.28;;;8.26;76.44
68075;BME280;54864;52.002;5.468;2023-02-11T02:11:03;103228.91;;;8.30;76.33
68075;BME280;54864;52.002;5.468;2023-02-11T02:12:05;103232.41;;;8.32;76.27
68075;BME280;54864;52.002;5.468;2023-02-11T02:13:06;103231.53;;;8.28;76.07
68075;BME280;54864;52.002;5.468;2023-02-11T02:14:09;103236.84;;;8.35;76.03
68075;BME280;54864;52.002;5.468;2023-02-11T02:15:26;103235.09;;;8.41;75.99
68075;BME280;54864;52.002;5.468;2023-02-11T02:16:31;103229.84;;;8.41;75.13
68075;BME280;54864;52.002;5.468;2023-02-11T02:17:37;103230.72;;;8.40;76.01
68075;BME280;54864;52.002;5.468;2023-02-11T02:18:50;103229.84;;;8.38;75.76
68075;BME280;54864;52.002;5.468;2023-02-11T02:20:15;103235.03;;;8.29;75.88
68075;BME280;54864;52.002;5.468;2023-02-11T02:21:53;103236.75;;;8.22;76.17
68075;BME280;54864;52.002;5.468;2023-02-11T02:23:23;103234.19;;;8.33;76.11
68075;BME280;54864;52.002;5.468;2023-02-11T02:24:54;103249.03;;;8.26;76.19
68075;BME280;54864;52.002;5.468;2023-02-11T02:27:35;103231.53;;;8.30;76.66
68075;BME280;54864;52.002;5.468;2023-02-11T02:28:57;103243.78;;;8.28;76.62
68075;BME280;54864;52.002;5.468;2023-02-11T02:30:20;103233.31;;;8.34;76.25
68075;BME280;54864;52.002;5.468;2023-02-11T02:31:42;103237.66;;;8.32;76.61
68075;BME280;54864;52.002;5.468;2023-02-11T02:32:59;103242.09;;;8.42;76.03
68075;BME280;54864;52.002;5.468;2023-02-11T02:34:09;103238.66;;;8.49;75.67
68075;BME280;54864;52.002;5.468;2023-02-11T02:35:22;103232.53;;;8.53;75.65
68075;BME280;54864;52.002;5.468;2023-02-11T02:36:33;103241.28;;;8.58;75.08
68075;BME280;54864;52.002;5.468;2023-02-11T02:37:40;103236.91;;;8.47;75.21
68075;BME280;54864;52.002;5.468;2023-02-11T02:38:50;103235.16;;;8.47;75.94
68075;BME280;54864;52.002;5.468;2023-02-11T02:39:54;103229.88;;;8.49;75.63
68075;BME280;54864;52.002;5.468;2023-02-11T02:41:01;103229.88;;;8.49;75.74
68075;BME280;54864;52.002;5.468;2023-02-11T02:42:04;103225.50;;;8.46;75.64
68075;BME280;54864;52.002;5.468;2023-02-11T02:43:06;103225.44;;;8.39;76.23
68075;BME280;54864;52.002;5.468;2023-02-11T02:44:09;103217.56;;;8.37;75.62
68075;BME280;54864;52.002;5.468;2023-02-11T02:45:11;103214.94;;;8.36;76.10
68075;BME280;54864;52.002;5.468;2023-02-11T02:46:14;103223.75;;;8.45;75.27
68075;BME280;54864;52.002;5.468;2023-02-11T02:47:16;103224.59;;;8.43;75.97
68075;BME280;54864;52.002;5.468;2023-02-11T02:48:27;103220.19;;;8.40;76.21
68075;BME280;54864;52.002;5.468;2023-02-11T02:49:29;103214.94;;;8.40;75.82
68075;BME280;54864;52.002;5.468;2023-02-11T02:50:33;103209.75;;;8.52;75.78
68075;BME280;54864;52.002;5.468;2023-02-11T02:51:46;103214.94;;;8.43;75.50
68075;BME280;54864;52.002;5.468;2023-02-11T02:52:58;103217.56;;;8.42;76.01
68075;BME280;54864;52.002;5.468;2023-02-11T02:55:51;103218.44;;;8.41;75.84
68075;BME280;54864;52.002;5.468;2023-02-11T02:57:06;103208.81;;;8.41;76.18
68075;BME280;54864;52.002;5.468;2023-02-11T02:58:36;103206.19;;;8.38;75.88
68075;BME280;54864;52.002;5.468;2023-02-11T02:59:53;103209.63;;;8.30;76.56
68075;BME280;54864;52.002;5.468;2023-02-11T03:01:02;103211.38;;;8.32;76.26
68075;BME280;54864;52.002;5.468;2023-02-11T03:02:12;103209.63;;;8.28;76.08
68075;BME280;54864;52.002;5.468;2023-02-11T03:03:21;103214.84;;;8.11;76.55
68075;BME280;54864;52.002;5.468;2023-02-11T03:04:34;103220.97;;;8.09;77.29
68075;BME280;54864;52.002;5.468;2023-02-11T03:05:47;103214.81;;;8.08;77.81
68075;BME280;54864;52.002;5.468;2023-02-11T03:06:54;103221.84;;;8.15;76.89
68075;BME280;54864;52.002;5.468;2023-02-11T03:08:01;103218.38;;;8.19;76.74
68075;BME280;54864;52.002;5.468;2023-02-11T03:09:12;103225.38;;;8.22;76.34
68075;BME280;54864;52.002;5.468;2023-02-11T03:10:18;103229.75;;;8.18;76.69
68075;BME280;54864;52.002;5.468;2023-02-11T03:11:23;103221.88;;;8.23;76.54
68075;BME280;54864;52.002;5.468;2023-02-11T03:12:26;103220.13;;;8.23;76.51
68075;BME280;54864;52.002;5.468;2023-02-11T03:13:32;103219.25;;;8.21;76.65
68075;BME280;54864;52.002;5.468;2023-02-11T03:14:34;103222.75;;;8.17;76.71
68075;BME280;54864;52.002;5.468;2023-02-11T03:15:38;103222.72;;;8.11;77.65
68075;BME280;54864;52.002;5.468;2023-02-11T03:16:41;103210.47;;;8.13;77.32
68075;BME280;54864;52.002;5.468;2023-02-11T03:17:47;103208.66;;;7.95;78.05
68075;BME280;54864;52.002;5.468;2023-02-11T03:18:54;103210.44;;;8.04;77.92
68075;BME280;54864;52.002;5.468;2023-02-11T03:19:59;103199.03;;;8.04;77.27
68075;BME280;54864;52.002;5.468;2023-02-11T03:21:02;103212.19;;;8.04;78.28
68075;BME280;54864;52.002;5.468;2023-02-11T03:22:09;103200.81;;;8.09;78.14
68075;BME280;54864;52.002;5.468;2023-02-11T03:23:13;103209.56;;;8.05;77.85
68075;BME280;54864;52.002;5.468;2023-02-11T03:24:21;103201.66;;;8.01;77.79
68075;BME280;54864;52.002;5.468;2023-02-11T03:25:28;103210.41;;;7.95;78.19
68075;BME280;54864;52.002;5.468;2023-02-11T03:26:37;103210.44;;;8.07;77.91
68075;BME280;54864;52.002;5.468;2023-02-11T03:27:44;103205.22;;;8.15;77.64
68075;BME280;54864;52.002;5.468;2023-02-11T03:28:52;103203.47;;;8.18;77.41
68075;BME280;54864;52.002;5.468;2023-02-11T03:29:59;103199.09;;;8.25;77.29
68075;BME280;54864;52.002;5.468;2023-02-11T03:31:10;103199.09;;;8.17;77.71
68075;BME280;54864;52.002;5.468;2023-02-11T03:32:15;103192.97;;;8.23;77.29
68075;BME280;54864;52.002;5.468;2023-02-11T03:33:24;103189.47;;;8.24;77.03
68075;BME280;54864;52.002;5.468;2023-02-11T03:34:32;103194.72;;;8.25;77.44
68075;BME280;54864;52.002;5.468;2023-02-11T03:35:40;103192.09;;;8.24;77.07
68075;BME280;54864;52.002;5.468;2023-02-11T03:36:45;103187.69;;;8.15;77.78
68075;BME280;54864;52.002;5.468;2023-02-11T03:37:50;103206.09;;;8.21;78.17
68075;BME280;54864;52.002;5.468;2023-02-11T03:38:55;103194.72;;;8.27;77.07
68075;BME280;54864;52.002;5.468;2023-02-11T03:40:01;103199.09;;;8.20;77.56
68075;BME280;54864;52.002;5.468;2023-02-11T03:41:04;103192.94;;;8.14;77.50
68075;BME280;54864;52.002;5.468;2023-02-11T03:42:09;103193.81;;;8.13;78.16
68075;BME280;54864;52.002;5.468;2023-02-11T03:43:15;103193.81;;;8.14;78.14
68075;BME280;54864;52.002;5.468;2023-02-11T03:44:19;103186.81;;;8.18;77.98
68075;BME280;54864;52.002;5.468;2023-02-11T03:45:22;103185.06;;;8.09;78.45
68075;BME280;54864;52.002;5.468;2023-02-11T03:46:28;103184.19;;;8.15;77.93
68075;BME280;54864;52.002;5.468;2023-02-11T03:47:31;103186.81;;;8.16;78.24
68075;BME280;54864;52.002;5.468;2023-02-11T03:48:37;103179.81;;;8.11;78.23
68075;BME280;54864;52.002;5.468;2023-02-11T03:49:41;103185.09;;;8.21;78.07
68075;BME280;54864;52.002;5.468;2023-02-11T03:50:47;103186.81;;;8.18;77.93
68075;BME280;54864;52.002;5.468;2023-02-11T03:51:50;103187.72;;;8.21;77.44
68075;BME280;54864;52.002;5.468;2023-02-11T03:52:54;103191.22;;;8.20;78.00
68075;BME280;54864;52.002;5.468;2023-02-11T03:53:59;103185.94;;;8.19;77.70
68075;BME280;54864;52.002;5.468;2023-02-11T03:55:06;103183.31;;;8.16;78.11
68075;BME280;54864;52.002;5.468;2023-02-11T03:56:10;103178.91;;;8.01;78.93
68075;BME280;54864;52.002;5.468;2023-02-11T03:57:14;103182.44;;;8.15;78.51
68075;BME280;54864;52.002;5.468;2023-02-11T03:58:15;103184.19;;;8.19;77.68
68075;BME280;54864;52.002;5.468;2023-02-11T03:59:17;103178.97;;;8.22;77.30
68075;BME280;54864;52.002;5.468;2023-02-11T04:00:18;103188.56;;;8.11;77.74
68075;BME280;54864;52.002;5.468;2023-02-11T04:01:20;103181.53;;;8.06;78.23
68075;BME280;54864;52.002;5.468;2023-02-11T04:02:22;103173.63;;;7.98;78.31
68075;BME280;54864;52.002;5.468;2023-02-11T04:03:25;103177.16;;;8.08;78.52
68075;BME280;54864;52.002;5.468;2023-02-11T04:04:26;103177.19;;;8.15;78.11
68075;BME280;54864;52.002;5.468;2023-02-11T04:05:28;103177.19;;;8.11;77.96
68075;BME280;54864;52.002;5.468;2023-02-11T04:06:30;103178.06;;;8.16;77.84
68075;BME280;54864;52.002;5.468;2023-02-11T04:07:32;103171.94;;;8.14;78.18
68075;BME280;54864;52.002;5.468;2023-02-11T04:08:34;103177.19;;;8.15;77.84
68075;BME280;54864;52.002;5.468;2023-02-11T04:09:36;103182.44;;;8.14;77.65
68075;BME280;54864;52.002;5.468;2023-02-11T04:10:36;103185.94;;;8.10;78.03
68075;BME280;54864;52.002;5.468;2023-02-11T04:11:38;103179.75;;;7.97;78.67
68075;BME280;54864;52.002;5.468;2023-02-11T04:12:39;103185.03;;;8.02;78.37
68075;BME280;54864;52.002;5.468;2023-02-11T04:13:40;103177.16;;;8.03;78.54
68075;BME280;54864;52.002;5.468;2023-02-11T04:14:41;103193.78;;;8.01;78.27
68075;BME280;54864;52.002;5.468;2023-02-11T04:15:43;103193.75;;;7.94;78.25
68075;BME280;54864;52.002;5.468;2023-02-11T04:16:43;103199.91;;;8.01;78.71
68075;BME280;54864;52.002;5.468;2023-02-11T04:17:45;103197.31;;;8.10;78.14
68075;BME280;54864;52.002;5.468;2023-02-11T04:18:46;103199.09;;;8.16;77.52
68075;BME280;54864;52.002;5.468;2023-02-11T04:19:47;103202.59;;;8.16;77.84
68075;BME280;54864;52.002;5.468;2023-02-11T04:20:49;103206.09;;;8.15;77.09
68075;BME280;54864;52.002;5.468;2023-02-11T04:21:52;103196.44;;;8.08;77.50
68075;BME280;54864;52.002;5.468;2023-02-11T04:22:53;103205.19;;;8.03;78.57
68075;BME280;54864;52.002;5.468;2023-02-11T04:23:54;103206.94;;;8.05;78.87
68075;BME280;54864;52.002;5.468;2023-02-11T04:24:55;103203.44;;;8.06;78.33
68075;BME280;54864;52.002;5.468;2023-02-11T04:25:57;103201.69;;;8.08;78.41
68075;BME280;54864;52.002;5.468;2023-02-11T04:26:58;103196.44;;;8.11;78.07
68075;BME280;54864;52.002;5.468;2023-02-11T04:28:00;103196.44;;;8.11;78.27
68075;BME280;54864;52.002;5.468;2023-02-11T04:29:00;103197.31;;;8.10;78.23
68075;BME280;54864;52.002;5.468;2023-02-11T04:30:03;103198.16;;;7.99;78.22
68075;BME280;54864;52.002;5.468;2023-02-11T04:31:04;103190.31;;;8.08;78.36
68075;BME280;54864;52.002;5.468;2023-02-11T04:32:06;103194.69;;;8.13;77.91
68075;BME280;54864;52.002;5.468;2023-02-11T04:33:06;103199.06;;;8.08;78.47
68075;BME280;54864;52.002;5.468;2023-02-11T04:34:08;103195.56;;;8.11;78.08
68075;BME280;54864;52.002;5.468;2023-02-11T04:35:09;103199.09;;;8.19;77.91
68075;BME280;54864;52.002;5.468;2023-02-11T04:36:11;103205.22;;;8.19;77.73
68075;BME280;54864;52.002;5.468;2023-02-11T04:37:16;103204.34;;;8.22;77.22
68075;BME280;54864;52.002;5.468;2023-02-11T04:38:17;103201.75;;;8.25;77.38
68075;BME280;54864;52.002;5.468;2023-02-11T04:39:19;103200.84;;;8.21;77.43
68075;BME280;54864;52.002;5.468;2023-02-11T04:40:19;103196.44;;;8.07;78.12
68075;BME280;54864;52.002;5.468;2023-02-11T04:41:21;103201.72;;;8.16;77.92
68075;BME280;54864;52.002;5.468;2023-02-11T04:42:22;103202.59;;;8.15;77.85
68075;BME280;54864;52.002;5.468;2023-02-11T04:43:24;103203.47;;;8.15;77.71
68075;BME280;54864;52.002;5.468;2023-02-11T04:44:24;103205.22;;;8.19;77.91
68075;BME280;54864;52.002;5.468;2023-02-11T04:45:26;103203.47;;;8.15;77.90
68075;BME280;54864;52.002;5.468;2023-02-11T04:46:27;103201.72;;;8.13;78.12
68075;BME280;54864;52.002;5.468;2023-02-11T04:47:28;103208.69;;;8.08;78.74
68075;BME280;54864;52.002;5.468;2023-02-11T04:48:29;103205.19;;;8.07;78.97
68075;BME280;54864;52.002;5.468;2023-02-11T04:49:31;103205.19;;;8.06;78.06
68075;BME280;54864;52.002;5.468;2023-02-11T04:50:32;103208.69;;;8.03;78.49
68075;BME280;54864;52.002;5.468;2023-02-11T04:51:33;103218.31;;;8.07;78.36
68075;BME280;54864;52.002;5.468;2023-02-11T04:52:35;103217.44;;;8.04;78.41
68075;BME280;54864;52.002;5.468;2023-02-11T04:53:37;103213.91;;;7.99;78.79
68075;BME280;54864;52.002;5.468;2023-02-11T04:54:38;103211.31;;;8.05;78.84
68075;BME280;54864;52.002;5.468;2023-02-11T04:55:40;103214.81;;;8.05;78.82
68075;BME280;54864;52.002;5.468;2023-02-11T04:56:40;103212.19;;;8.08;78.70
68075;BME280;54864;52.002;5.468;2023-02-11T04:57:42;103207.84;;;8.13;78.27
68075;BME280;54864;52.002;5.468;2023-02-11T04:58:43;103202.59;;;8.16;77.72
68075;BME280;54864;52.002;5.468;2023-02-11T04:59:45;103204.31;;;8.11;78.22
68075;BME280;54864;52.002;5.468;2023-02-11T05:00:46;103198.16;;;7.99;78.35
68075;BME280;54864;52.002;5.468;2023-02-11T05:01:48;103197.28;;;7.97;79.18
68075;BME280;54864;52.002;5.468;2023-02-11T05:02:49;103196.41;;;8.02;79.22
68075;BME280;54864;52.002;5.468;2023-02-11T05:03:50;103197.31;;;8.13;78.07
68075;BME280;54864;52.002;5.468;2023-02-11T05:04:51;103195.59;;;8.20;77.92
68075;BME280;54864;52.002;5.468;2023-02-11T05:05:53;103198.22;;;8.26;77.57
68075;BME280;54864;52.002;5.468;2023-02-11T05:06:54;103198.25;;;8.31;77.14
68075;BME280;54864;52.002;5.468;2023-02-11T05:07:57;103200.91;;;8.34;77.19
68075;BME280;54864;52.002;5.468;2023-02-11T05:08:58;103195.63;;;8.31;77.11
68075;BME280;54864;52.002;5.468;2023-02-11T05:10:00;103193.00;;;8.31;77.82
68075;BME280;54864;52.002;5.468;2023-02-11T05:11:01;103204.41;;;8.37;77.24
68075;BME280;54864;52.002;5.468;2023-02-11T05:12:03;103203.50;;;8.31;77.26
68075;BME280;54864;52.002;5.468;2023-02-11T05:13:03;103203.50;;;8.31;77.79
68075;BME280;54864;52.002;5.468;2023-02-11T05:14:06;103200.03;;;8.35;77.29
68075;BME280;54864;52.002;5.468;2023-02-11T05:15:07;103204.34;;;8.17;77.71
68075;BME280;54864;52.002;5.468;2023-02-11T05:16:09;103202.63;;;8.25;77.51
68075;BME280;54864;52.002;5.468;2023-02-11T05:17:10;103199.09;;;8.20;77.73
68075;BME280;54864;52.002;5.468;2023-02-11T05:18:11;103205.22;;;8.19;77.89
68075;BME280;54864;52.002;5.468;2023-02-11T05:19:14;103199.97;;;8.22;77.88
68075;BME280;54864;52.002;5.468;2023-02-11T05:20:15;103205.22;;;8.18;78.21
68075;BME280;54864;52.002;5.468;2023-02-11T05:21:17;103199.09;;;8.25;77.77
68075;BME280;54864;52.002;5.468;2023-02-11T05:22:19;103195.63;;;8.29;77.19
68075;BME280;54864;52.002;5.468;2023-02-11T05:23:22;103201.72;;;8.23;77.93
68075;BME280;54864;52.002;5.468;2023-02-11T05:24:24;103198.22;;;8.21;77.53
68075;BME280;54864;52.002;5.468;2023-02-11T05:25:25;103206.09;;;8.21;78.48
68075;BME280;54864;52.002;5.468;2023-02-11T05:26:26;103201.69;;;8.08;78.45
68075;BME280;54864;52.002;5.468;2023-02-11T05:27:27;103206.03;;;8.00;78.78
68075;BME280;54864;52.002;5.468;2023-02-11T05:28:29;103206.94;;;8.08;78.94
68075;BME280;54864;52.002;5.468;2023-02-11T05:29:29;103214.81;;;8.08;78.98
68075;BME280;54864;52.002;5.468;2023-02-11T05:30:31;103208.72;;;8.15;78.94
68075;BME280;54864;52.002;5.468;2023-02-11T05:31:32;103206.97;;;8.14;78.47
68075;BME280;54864;52.002;5.468;2023-02-11T05:32:34;103212.19;;;8.07;78.44
68075;BME280;54864;52.002;5.468;2023-02-11T05:33:35;103206.03;;;7.99;79.16
68075;BME280;54864;52.002;5.468;2023-02-11T05:34:36;103213.88;;;7.91;79.81
68075;BME280;54864;52.002;5.468;2023-02-11T05:35:37;103205.13;;;7.86;79.56
68075;BME280;54864;52.002;5.468;2023-02-11T05:36:39;103205.16;;;8.00;79.57
68075;BME280;54864;52.002;5.468;2023-02-11T05:37:41;103197.31;;;8.07;79.40
68075;BME280;54864;52.002;5.468;2023-02-11T05:38:44;103196.44;;;8.13;78.68
68075;BME280;54864;52.002;5.468;2023-02-11T05:39:45;103193.81;;;8.14;78.33
68075;BME280;54864;52.002;5.468;2023-02-11T05:40:47;103194.69;;;8.15;78.66
68075;BME280;54864;52.002;5.468;2023-02-11T05:41:48;103197.31;;;8.07;78.89
68075;BME280;54864;52.002;5.468;2023-02-11T05:42:52;103190.31;;;8.08;78.63
68075;BME280;54864;52.002;5.468;2023-02-11T05:43:53;103197.31;;;8.13;78.96